createdAt,value
2018-06-17T00:00:49.882Z,73.20
2018-06-17T00:03:17.948Z,74.08
2018-06-17T00:05:46.030Z,74.50
2018-06-17T00:08:14.009Z,75.44
2018-06-17T00:10:42.000Z,75.19
2018-06-17T00:13:10.016Z,75.32
2018-06-17T00:15:38.021Z,75.09
2018-06-17T00:18:06.056Z,73.96
2018-06-17T00:20:34.042Z,74.60
2018-06-17T00:23:02.061Z,74.35
2018-06-17T00:25:30.061Z,75.10
2018-06-17T00:27:58.049Z,74.89
2018-06-17T00:30:26.083Z,73.99
2018-06-17T00:32:54.168Z,74.23
2018-06-17T00:35:22.178Z,74.92
2018-06-17T00:37:50.624Z,75.86
2018-06-17T00:40:18.652Z,75.47
2018-06-17T00:42:46.624Z,75.67
2018-06-17T00:45:14.625Z,74.95
2018-06-17T00:47:42.636Z,75.47
2018-06-17T00:50:10.657Z,75.05
2018-06-17T00:52:38.678Z,75.36
2018-06-17T00:55:06.673Z,76.02
2018-06-17T00:57:46.764Z,76.09
2018-06-17T01:00:14.772Z,76.62
2018-06-17T01:02:43.123Z,76.13
2018-06-17T01:05:11.106Z,76.01
2018-06-17T01:07:39.104Z,75.53
2018-06-17T01:10:07.108Z,75.97
2018-06-17T01:12:35.140Z,75.12
2018-06-17T01:15:03.170Z,76.57
2018-06-17T01:17:31.178Z,75.70
2018-06-17T01:19:59.263Z,77.00
2018-06-17T01:22:27.310Z,76.50
2018-06-17T01:24:55.368Z,77.00
2018-06-17T01:27:23.404Z,76.31
2018-06-17T01:29:51.429Z,75.63
2018-06-17T01:32:19.441Z,75.73
2018-06-17T01:34:47.465Z,75.89
2018-06-17T01:37:15.477Z,76.21
2018-06-17T01:39:43.488Z,75.51
2018-06-17T01:42:11.512Z,75.32
2018-06-17T01:44:39.557Z,76.34
2018-06-17T01:47:07.600Z,76.68
2018-06-17T01:49:35.765Z,75.96
2018-06-17T01:52:03.776Z,76.05
2018-06-17T01:54:31.823Z,76.73
2018-06-17T01:56:59.960Z,76.58
2018-06-17T01:59:27.962Z,76.92
2018-06-17T02:01:55.966Z,76.98
2018-06-17T02:04:29.416Z,76.47
2018-06-17T02:07:02.829Z,76.30
2018-06-17T02:09:36.175Z,77.39
2018-06-17T02:12:09.560Z,77.41
2018-06-17T02:14:42.990Z,78.11
2018-06-17T02:17:10.981Z,78.43
2018-06-17T02:19:38.981Z,79.28
2018-06-17T02:22:06.993Z,78.91
2018-06-17T02:24:35.191Z,78.66
2018-06-17T02:27:03.212Z,79.12
2018-06-17T02:29:31.244Z,78.69
2018-06-17T02:31:59.265Z,79.02
2018-06-17T02:34:27.258Z,78.77
2018-06-17T02:36:55.261Z,79.24
2018-06-17T02:39:23.321Z,80.00
2018-06-17T02:41:51.828Z,80.25
2018-06-17T02:44:19.828Z,79.37
2018-06-17T02:46:53.348Z,80.05
2018-06-17T02:49:26.733Z,78.92
2018-06-17T02:52:00.200Z,79.43
2018-06-17T02:54:46.105Z,78.89
2018-06-17T02:57:15.240Z,78.56
2018-06-17T02:59:43.920Z,78.51
2018-06-17T03:02:12.416Z,78.75
2018-06-17T03:04:40.433Z,78.97
2018-06-17T03:07:08.517Z,79.26
2018-06-17T03:09:36.545Z,78.63
2018-06-17T03:12:04.600Z,79.84
2018-06-17T03:14:32.604Z,80.04
2018-06-17T03:17:00.609Z,79.05
2018-06-17T03:19:28.613Z,79.53
2018-06-17T03:21:56.663Z,79.96
2018-06-17T03:24:30.064Z,79.67
2018-06-17T03:27:03.424Z,80.64
2018-06-17T03:29:36.900Z,80.59
2018-06-17T03:32:10.285Z,81.31
2018-06-17T03:34:38.285Z,81.22
2018-06-17T03:37:06.361Z,81.13
2018-06-17T03:39:34.385Z,81.64
2018-06-17T03:42:02.529Z,81.00
2018-06-17T03:44:30.576Z,81.14
2018-06-17T03:46:58.565Z,81.54
2018-06-17T03:49:26.611Z,80.93
2018-06-17T03:51:54.609Z,80.25
2018-06-17T03:54:22.721Z,80.30
2018-06-17T03:56:50.742Z,80.23
2018-06-17T03:59:18.729Z,79.01
2018-06-17T04:01:46.724Z,78.54
2018-06-17T04:04:14.728Z,77.88
2018-06-17T04:06:42.730Z,78.15
2018-06-17T04:09:10.733Z,78.35
2018-06-17T04:11:38.810Z,77.50
2018-06-17T04:14:06.792Z,76.86
2018-06-17T04:16:34.837Z,77.08
2018-06-17T04:19:02.852Z,76.64
2018-06-17T04:21:30.859Z,76.70
2018-06-17T04:23:58.854Z,76.98
2018-06-17T04:26:26.842Z,76.63
2018-06-17T04:28:54.832Z,77.40
2018-06-17T04:31:22.988Z,77.24
2018-06-17T04:33:51.001Z,75.66
2018-06-17T04:36:18.996Z,75.48
2018-06-17T04:38:47.026Z,75.16
2018-06-17T04:41:15.034Z,75.06
2018-06-17T04:43:43.021Z,75.97
2018-06-17T04:46:11.009Z,75.99
2018-06-17T04:48:39.025Z,75.47
2018-06-17T04:51:07.024Z,75.48
2018-06-17T04:53:35.181Z,75.51
2018-06-17T04:56:03.173Z,74.62
2018-06-17T04:58:31.346Z,73.64
2018-06-17T05:00:59.346Z,72.81
2018-06-17T05:03:27.369Z,73.33
2018-06-17T05:05:55.376Z,72.86
2018-06-17T05:08:23.367Z,73.17
2018-06-17T05:10:51.407Z,72.34
2018-06-17T05:13:19.397Z,71.41
2018-06-17T05:15:47.385Z,71.39
2018-06-17T05:18:15.376Z,67.28
2018-06-17T05:20:43.432Z,63.91
2018-06-17T05:23:11.424Z,59.47
2018-06-17T05:25:39.456Z,54.29
2018-06-17T05:28:07.453Z,51.25
2018-06-17T05:30:35.457Z,48.72
2018-06-17T05:33:03.441Z,46.47
2018-06-17T05:35:31.459Z,43.05
2018-06-17T05:37:59.477Z,42.10
2018-06-17T05:40:27.480Z,42.42
2018-06-17T05:42:55.480Z,43.33
2018-06-17T05:45:23.504Z,43.81
2018-06-17T05:47:51.488Z,45.94
2018-06-17T05:50:19.477Z,45.95
2018-06-17T05:52:47.460Z,45.83
2018-06-17T05:55:15.493Z,46.69
2018-06-17T05:57:43.521Z,46.95
2018-06-17T06:00:11.541Z,45.78
2018-06-17T06:02:39.553Z,46.62
2018-06-17T06:05:07.549Z,48.12
2018-06-17T06:07:35.545Z,48.99
2018-06-17T06:10:03.578Z,47.82
2018-06-17T06:12:31.605Z,44.47
2018-06-17T06:14:59.930Z,43.22
2018-06-17T06:17:27.937Z,42.68
2018-06-17T06:19:55.996Z,38.33
2018-06-17T06:22:23.996Z,37.65
2018-06-17T06:24:51.989Z,35.79
2018-06-17T06:27:20.056Z,34.89
2018-06-17T06:29:48.057Z,33.81
2018-06-17T06:32:16.053Z,33.04
2018-06-17T06:34:44.048Z,30.21
2018-06-17T06:37:12.063Z,31.32
2018-06-17T06:39:40.057Z,30.89
2018-06-17T06:42:08.069Z,30.30
2018-06-17T06:44:36.085Z,30.76
2018-06-17T06:47:04.126Z,30.26
2018-06-17T06:49:32.108Z,28.84
2018-06-17T06:52:00.101Z,30.17
2018-06-17T06:56:49.210Z,30.32
2018-06-17T06:59:17.201Z,29.85
2018-06-17T07:01:56.597Z,27.96
2018-06-17T07:04:36.127Z,27.84
2018-06-17T07:07:15.494Z,29.06
2018-06-17T07:09:53.581Z,29.42
2018-06-17T07:12:21.661Z,28.59
2018-06-17T07:14:50.277Z,29.15
2018-06-17T07:17:29.909Z,30.11
2018-06-17T07:19:58.973Z,30.71
2018-06-17T07:22:27.002Z,29.95
2018-06-17T07:24:54.993Z,31.11
2018-06-17T07:27:34.586Z,31.44
2018-06-17T07:30:02.573Z,34.50
2018-06-17T07:32:30.595Z,33.29
2018-06-17T07:34:58.617Z,33.74
2018-06-17T07:37:26.612Z,33.21
2018-06-17T07:40:48.199Z,32.42
2018-06-17T07:43:16.177Z,33.00
2018-06-17T07:45:44.165Z,32.04
2018-06-17T07:48:17.425Z,32.25
2018-06-17T07:50:56.985Z,33.95
2018-06-17T07:53:25.042Z,35.51
2018-06-17T07:55:53.089Z,35.98
2018-06-17T07:58:21.143Z,35.86
2018-06-17T08:00:49.142Z,35.64
2018-06-17T08:03:17.150Z,37.42
2018-06-17T08:05:45.216Z,36.90
2018-06-17T08:08:13.353Z,41.02
2018-06-17T08:10:41.438Z,41.26
2018-06-17T08:13:09.440Z,40.61
2018-06-17T08:15:37.476Z,41.58
2018-06-17T08:18:05.548Z,42.72
2018-06-17T08:20:33.584Z,43.92
2018-06-17T08:23:01.573Z,43.72
2018-06-17T08:25:29.576Z,45.39
2018-06-17T08:27:57.657Z,45.24
2018-06-17T08:30:25.687Z,45.78
2018-06-17T08:32:53.734Z,44.67
2018-06-17T08:35:21.763Z,43.42
2018-06-17T08:37:49.808Z,42.66
2018-06-17T08:40:17.921Z,41.32
2018-06-17T08:42:45.976Z,42.87
2018-06-17T08:45:13.975Z,44.86
2018-06-17T08:47:41.969Z,44.68
2018-06-17T08:50:09.968Z,43.67
2018-06-17T08:52:37.986Z,41.94
2018-06-17T08:55:05.993Z,44.61
2018-06-17T08:57:34.005Z,43.42
2018-06-17T09:00:02.029Z,41.13
2018-06-17T09:02:30.014Z,42.10
2018-06-17T09:04:58.156Z,40.36
2018-06-17T09:07:26.137Z,39.92
2018-06-17T09:09:54.407Z,38.99
2018-06-17T09:12:22.487Z,40.01
2018-06-17T09:14:50.556Z,41.62
2018-06-17T09:17:18.570Z,42.95
2018-06-17T09:19:46.632Z,42.78
2018-06-17T09:22:14.627Z,41.97
2018-06-17T09:24:42.804Z,43.48
2018-06-17T09:27:11.009Z,42.59
2018-06-17T09:29:39.040Z,42.47
2018-06-17T09:32:07.169Z,43.74
2018-06-17T09:34:35.130Z,41.89
2018-06-17T09:37:03.144Z,42.97
2018-06-17T09:39:31.142Z,41.84
2018-06-17T09:41:59.196Z,40.90
2018-06-17T09:44:27.279Z,42.26
2018-06-17T09:46:55.293Z,41.16
2018-06-17T09:49:23.312Z,41.57
2018-06-17T09:51:51.293Z,42.31
2018-06-17T09:54:19.305Z,42.86
2018-06-17T09:56:47.286Z,41.05
2018-06-17T09:59:15.308Z,41.59
2018-06-17T10:01:43.319Z,43.08
2018-06-17T10:04:11.358Z,42.57
2018-06-17T10:06:39.379Z,41.86
2018-06-17T10:09:09.008Z,42.00
2018-06-17T10:11:37.123Z,42.91
2018-06-17T10:14:05.337Z,43.91
2018-06-17T10:16:33.365Z,43.77
2018-06-17T10:19:01.406Z,42.91
2018-06-17T10:21:29.464Z,42.87
2018-06-17T10:23:57.464Z,43.88
2018-06-17T10:26:25.506Z,43.18
2018-06-17T10:28:53.509Z,43.91
2018-06-17T10:31:21.505Z,43.00
2018-06-17T10:33:49.542Z,44.25
2018-06-17T10:36:17.561Z,43.44
2018-06-17T10:38:45.592Z,41.73
2018-06-17T10:41:13.643Z,42.73
2018-06-17T10:43:41.628Z,44.18
2018-06-17T10:46:09.689Z,43.06
2018-06-17T10:48:37.771Z,42.55
2018-06-17T10:51:05.933Z,42.19
2018-06-17T10:53:33.961Z,41.95
2018-06-17T10:56:02.179Z,41.17
2018-06-17T10:58:30.054Z,40.37
2018-06-17T11:00:58.090Z,39.99
2018-06-17T11:03:26.175Z,40.26
2018-06-17T11:05:54.188Z,39.11
2018-06-17T11:08:22.277Z,40.41
2018-06-17T11:10:50.352Z,37.30
2018-06-17T11:13:18.553Z,38.83
2018-06-17T11:15:47.538Z,41.10
2018-06-17T11:18:15.563Z,40.77
2018-06-17T11:20:43.588Z,42.46
2018-06-17T11:23:11.617Z,40.22
2018-06-17T11:25:39.673Z,39.49
2018-06-17T11:28:07.664Z,39.45
2018-06-17T11:30:35.668Z,39.27
2018-06-17T11:33:03.715Z,39.79
2018-06-17T11:35:31.727Z,37.51
2018-06-17T11:37:59.732Z,38.98
2018-06-17T11:40:27.751Z,42.00
2018-06-17T11:42:55.802Z,42.78
2018-06-17T11:45:23.816Z,42.53
2018-06-17T11:47:51.849Z,41.98
2018-06-17T11:50:19.873Z,41.78
2018-06-17T11:52:47.911Z,39.93
2018-06-17T11:55:15.893Z,37.65
2018-06-17T11:57:43.952Z,38.44
2018-06-17T12:00:11.968Z,40.58
2018-06-17T12:02:39.948Z,38.63
2018-06-17T12:05:07.990Z,39.42
2018-06-17T12:07:35.993Z,39.46
2018-06-17T12:10:04.004Z,38.18
2018-06-17T12:12:32.036Z,38.80
2018-06-17T12:15:00.040Z,38.75
2018-06-17T12:17:28.045Z,38.00
2018-06-17T12:19:56.088Z,40.14
2018-06-17T12:22:24.140Z,40.35
2018-06-17T12:24:52.236Z,41.33
2018-06-17T12:27:20.289Z,40.97
2018-06-17T12:29:48.320Z,41.55
2018-06-17T12:32:16.329Z,42.06
2018-06-17T12:34:44.332Z,42.46
2018-06-17T12:37:12.348Z,40.37
2018-06-17T12:39:40.400Z,40.90
2018-06-17T12:42:08.445Z,40.60
2018-06-17T12:44:36.469Z,40.97
2018-06-17T12:47:04.470Z,42.47
2018-06-17T12:49:32.476Z,41.22
2018-06-17T12:52:00.694Z,41.80
2018-06-17T12:54:28.716Z,41.59
2018-06-17T12:56:56.828Z,40.96
2018-06-17T12:59:24.817Z,41.08
2018-06-17T13:01:52.797Z,41.67
2018-06-17T13:04:20.797Z,41.49
2018-06-17T13:06:48.832Z,41.70
2018-06-17T13:09:16.853Z,41.12
2018-06-17T13:11:44.868Z,40.94
2018-06-17T13:14:12.866Z,41.49
2018-06-17T13:16:40.880Z,40.32
2018-06-17T13:19:08.970Z,40.58
2018-06-17T13:21:36.965Z,40.48
2018-06-17T13:24:05.048Z,41.11
2018-06-17T13:26:33.525Z,39.58
2018-06-17T13:29:01.653Z,40.70
2018-06-17T13:31:29.660Z,40.89
2018-06-17T13:33:57.708Z,42.93
2018-06-17T13:36:25.716Z,41.79
2018-06-17T13:38:53.700Z,41.21
2018-06-17T13:41:22.037Z,40.42
2018-06-17T13:43:50.040Z,40.00
2018-06-17T13:46:18.069Z,40.60
2018-06-17T13:48:46.061Z,40.72
2018-06-17T13:51:14.072Z,41.66
2018-06-17T13:53:42.096Z,41.94
2018-06-17T13:56:10.157Z,41.03
2018-06-17T13:58:38.177Z,40.91
2018-06-17T14:01:06.304Z,41.03
2018-06-17T14:03:34.348Z,40.68
2018-06-17T14:06:02.400Z,40.43
2018-06-17T14:08:30.598Z,40.62
2018-06-17T14:10:58.593Z,39.61
2018-06-17T14:13:26.622Z,39.15
2018-06-17T14:15:54.604Z,39.76
2018-06-17T14:18:22.669Z,39.62
2018-06-17T14:20:50.789Z,40.60
2018-06-17T14:23:18.884Z,40.12
2018-06-17T14:25:46.990Z,40.72
2018-06-17T14:28:15.928Z,39.23
2018-06-17T14:30:43.977Z,42.00
2018-06-17T14:33:11.987Z,39.95
2018-06-17T14:35:39.999Z,38.85
2018-06-17T14:38:08.296Z,37.80
2018-06-17T14:40:41.633Z,38.76
2018-06-17T14:43:15.481Z,38.71
2018-06-17T14:45:49.009Z,38.81
2018-06-17T14:48:22.505Z,37.94
2018-06-17T14:50:56.040Z,38.72
2018-06-17T14:53:24.048Z,37.61
2018-06-17T14:55:52.053Z,36.78
2018-06-17T14:58:20.085Z,37.77
2018-06-17T15:00:48.076Z,39.05
2018-06-17T15:03:16.254Z,38.06
2018-06-17T15:05:44.271Z,38.13
2018-06-17T15:08:12.296Z,38.20
2018-06-17T15:10:40.642Z,39.25
2018-06-17T15:13:08.682Z,39.43
2018-06-17T15:15:36.981Z,39.42
2018-06-17T15:18:05.210Z,39.60
2018-06-17T15:20:33.496Z,39.03
2018-06-17T15:23:01.644Z,39.36
2018-06-17T15:25:29.709Z,39.62
2018-06-17T15:27:57.732Z,38.50
2018-06-17T15:30:25.732Z,40.06
2018-06-17T15:32:59.308Z,39.91
2018-06-17T15:35:32.773Z,41.22
2018-06-17T15:38:06.324Z,39.54
2018-06-17T15:40:39.704Z,40.40
2018-06-17T15:43:07.789Z,41.61
2018-06-17T15:45:35.853Z,40.16
2018-06-17T15:48:03.963Z,41.39
2018-06-17T15:50:31.988Z,41.02
2018-06-17T15:52:59.956Z,41.06
2018-06-17T15:55:27.956Z,40.88
2018-06-17T15:57:55.957Z,42.27
2018-06-17T16:00:23.962Z,41.37
2018-06-17T16:02:51.960Z,41.47
2018-06-17T16:05:19.997Z,42.05
2018-06-17T16:07:48.092Z,41.95
2018-06-17T16:10:16.161Z,42.53
2018-06-17T16:12:49.548Z,41.56
2018-06-17T16:15:22.981Z,42.92
2018-06-17T16:17:56.323Z,43.63
2018-06-17T16:20:29.840Z,43.03
2018-06-17T16:22:57.988Z,44.03
2018-06-17T16:25:26.017Z,43.65
2018-06-17T16:27:54.005Z,44.51
2018-06-17T16:30:22.042Z,43.55
2018-06-17T16:32:50.069Z,44.69
2018-06-17T16:35:18.117Z,42.73
2018-06-17T16:37:46.148Z,44.01
2018-06-17T16:40:14.186Z,44.01
2018-06-17T16:42:42.195Z,42.85
2018-06-17T16:45:10.209Z,44.35
2018-06-17T16:47:38.192Z,42.53
2018-06-17T16:50:06.200Z,43.69
2018-06-17T16:52:39.704Z,44.30
2018-06-17T16:55:13.333Z,43.41
2018-06-17T16:57:46.818Z,43.04
2018-06-17T17:00:17.945Z,44.04
2018-06-17T17:02:46.532Z,43.11
2018-06-17T17:05:14.744Z,44.03
2018-06-17T17:07:43.197Z,44.45
2018-06-17T17:10:11.280Z,44.88
2018-06-17T17:12:39.336Z,44.70
2018-06-17T17:15:07.521Z,44.20
2018-06-17T17:17:35.684Z,44.79
2018-06-17T17:20:03.909Z,44.67
2018-06-17T17:22:32.082Z,43.63
2018-06-17T17:25:00.089Z,46.09
2018-06-17T17:27:28.092Z,45.57
2018-06-17T17:29:56.193Z,45.93
2018-06-17T17:32:29.740Z,46.31
2018-06-17T17:35:03.243Z,46.28
2018-06-17T17:37:37.650Z,46.26
2018-06-17T17:40:11.000Z,46.25
2018-06-17T17:42:39.036Z,46.27
2018-06-17T17:45:15.329Z,46.74
2018-06-17T17:47:43.350Z,46.76
2018-06-17T17:50:11.624Z,47.67
2018-06-17T17:52:39.657Z,47.67
2018-06-17T17:55:07.697Z,47.88
2018-06-17T17:57:35.702Z,48.90
2018-06-17T18:00:03.769Z,48.51
2018-06-17T18:02:31.781Z,49.24
2018-06-17T18:04:59.797Z,49.15
2018-06-17T18:07:27.793Z,49.52
2018-06-17T18:09:55.796Z,49.29
2018-06-17T18:12:23.980Z,49.15
2018-06-17T18:14:52.014Z,49.89
2018-06-17T18:17:20.123Z,50.44
2018-06-17T18:19:48.105Z,50.04
2018-06-17T18:22:16.108Z,49.61
2018-06-17T18:24:48.299Z,48.95
2018-06-17T18:27:21.840Z,49.31
2018-06-17T18:29:55.203Z,49.12
2018-06-17T18:32:28.766Z,48.60
2018-06-17T18:35:02.073Z,48.51
2018-06-17T18:37:30.085Z,48.78
2018-06-17T18:39:58.053Z,48.87
2018-06-17T18:42:26.049Z,48.09
2018-06-17T18:44:54.096Z,48.95
2018-06-17T18:47:22.084Z,49.46
2018-06-17T18:49:50.229Z,48.49
2018-06-17T18:52:18.257Z,49.05
2018-06-17T18:54:46.282Z,48.63
2018-06-17T18:57:14.321Z,48.95
2018-06-17T18:59:42.327Z,49.29
2018-06-17T19:02:10.349Z,49.12
2018-06-17T19:04:38.358Z,49.23
2018-06-17T19:07:07.417Z,49.44
2018-06-17T19:09:41.410Z,48.97
2018-06-17T19:13:16.121Z,48.63
2018-06-17T19:15:49.549Z,49.64
2018-06-17T19:18:17.589Z,49.43
2018-06-17T19:20:45.831Z,50.26
2018-06-17T19:23:13.829Z,50.17
2018-06-17T19:25:41.978Z,49.81
2018-06-17T19:28:10.040Z,50.14
2018-06-17T19:30:38.028Z,49.42
2018-06-17T19:33:06.090Z,50.71
2018-06-17T19:35:34.137Z,49.84
2018-06-17T19:38:02.223Z,49.86
2018-06-17T19:40:30.241Z,50.23
2018-06-17T19:42:58.259Z,50.32
2018-06-17T19:45:26.368Z,50.77
2018-06-17T19:47:54.347Z,49.60
2018-06-17T19:50:27.904Z,50.20
2018-06-17T19:53:01.353Z,50.41
2018-06-17T19:55:34.685Z,50.69
2018-06-17T19:58:08.186Z,50.55
2018-06-17T20:00:37.994Z,51.44
2018-06-17T20:03:05.968Z,50.26
2018-06-17T20:05:34.284Z,50.34
2018-06-17T20:08:02.290Z,50.85
2018-06-17T20:10:30.345Z,50.45
2018-06-17T20:12:58.340Z,50.71
2018-06-17T20:15:26.561Z,50.33
2018-06-17T20:17:54.571Z,51.08
2018-06-17T20:20:22.829Z,50.30
2018-06-17T20:22:50.836Z,51.30
2018-06-17T20:25:18.861Z,51.02
2018-06-17T20:27:46.858Z,52.11
2018-06-17T20:30:14.864Z,51.70
2018-06-17T20:32:48.375Z,52.41
2018-06-17T20:35:21.837Z,51.77
2018-06-17T20:37:55.425Z,52.91
2018-06-17T20:40:28.867Z,52.27
2018-06-17T20:43:02.270Z,53.12
2018-06-17T20:45:30.335Z,53.45
2018-06-17T20:47:58.391Z,52.69
2018-06-17T20:50:26.384Z,52.99
2018-06-17T20:52:54.409Z,53.60
2018-06-17T20:55:22.433Z,53.95
2018-06-17T20:57:50.416Z,53.73
2018-06-17T21:00:18.424Z,54.46
2018-06-17T21:02:46.503Z,53.91
2018-06-17T21:05:14.502Z,54.80
2018-06-17T21:07:42.507Z,54.13
2018-06-17T21:10:10.942Z,55.18
2018-06-17T21:12:39.019Z,55.52
2018-06-17T21:15:12.532Z,55.33
2018-06-17T21:17:40.542Z,54.27
2018-06-17T21:20:14.101Z,54.88
2018-06-17T21:22:47.677Z,54.96
2018-06-17T21:25:21.009Z,55.57
2018-06-17T21:27:52.366Z,56.13
2018-06-17T21:30:21.735Z,55.06
2018-06-17T21:32:49.674Z,56.13
2018-06-17T21:35:17.960Z,55.71
2018-06-17T21:37:45.989Z,55.77
2018-06-17T21:40:14.046Z,56.75
2018-06-17T21:42:42.510Z,57.50
2018-06-17T21:45:10.829Z,57.87
2018-06-17T21:47:38.828Z,58.89
2018-06-17T21:50:06.900Z,59.29
2018-06-17T21:52:35.145Z,59.24
2018-06-17T21:55:03.229Z,59.14
2018-06-17T21:57:31.458Z,59.81
2018-06-17T21:59:59.485Z,59.95
2018-06-17T22:02:27.568Z,59.46
2018-06-17T22:04:55.556Z,61.32
2018-06-17T22:07:23.581Z,61.30
2018-06-17T22:09:57.137Z,61.46
2018-06-17T22:12:30.664Z,60.47
2018-06-17T22:15:04.000Z,60.32
2018-06-17T22:17:37.418Z,61.16
2018-06-17T22:20:05.461Z,61.58
2018-06-17T22:22:33.454Z,63.05
2018-06-17T22:25:01.486Z,62.56
2018-06-17T22:27:29.553Z,61.92
2018-06-17T22:29:57.535Z,62.20
2018-06-17T22:32:25.520Z,62.40
2018-06-17T22:34:53.519Z,62.71
2018-06-17T22:37:21.518Z,62.37
2018-06-17T22:39:49.539Z,63.12
2018-06-17T22:42:17.544Z,63.70
2018-06-17T22:44:45.589Z,63.06
2018-06-17T22:47:17.796Z,64.10
2018-06-17T22:49:45.801Z,64.07
2018-06-17T22:52:13.776Z,63.98
2018-06-17T22:54:49.216Z,63.40
2018-06-17T22:57:22.597Z,64.08
2018-06-17T22:59:56.000Z,64.82
2018-06-17T23:02:29.664Z,64.15
2018-06-17T23:05:03.145Z,64.70
2018-06-17T23:07:36.392Z,65.00
2018-06-17T23:10:05.636Z,64.42
2018-06-17T23:12:33.665Z,64.81
2018-06-17T23:15:01.697Z,64.58
2018-06-17T23:17:29.717Z,65.27
2018-06-17T23:19:57.738Z,65.47
2018-06-17T23:22:25.727Z,65.95
2018-06-17T23:24:54.176Z,66.64
2018-06-17T23:27:22.187Z,67.46
2018-06-17T23:29:50.188Z,67.21
2018-06-17T23:32:18.196Z,68.43
2018-06-17T23:34:46.290Z,68.12
2018-06-17T23:37:14.345Z,68.20
2018-06-17T23:39:42.317Z,69.01
2018-06-17T23:42:10.316Z,68.61
2018-06-17T23:44:38.305Z,68.96
2018-06-17T23:47:11.709Z,69.19
2018-06-17T23:49:45.113Z,69.13
2018-06-17T23:52:18.507Z,69.26
2018-06-17T23:54:51.996Z,69.17
2018-06-17T23:57:20.045Z,69.14
2018-06-17T23:59:48.185Z,68.96
